sensor_id;sensor_type;location;lat;lon;timestamp;pressure;altitude;pressure_sealevel;temperature;humidity
16030;BME280;34770;49.272;11.070;2024-03-07T00:02:20;98253.78;;;3.06;82.22
16030;BME280;34770;49.272;11.070;2024-03-07T00:04:45;98273.94;;;3.13;82.05
16030;BME280;34770;49.272;11.070;2024-03-07T00:07:11;98273.31;;;3.25;81.53
16030;BME280;34770;49.272;11.070;2024-03-07T00:09:37;98268.03;;;3.24;81.35
16030;BME280;34770;49.272;11.070;2024-03-07T00:12:03;98269.47;;;3.14;79.46
16030;BME280;34770;49.272;11.070;2024-03-07T00:14:30;98245.22;;;3.00;79.33
16030;BME280;34770;49.272;11.070;2024-03-07T00:16:57;98271.00;;;3.01;80.27
16030;BME280;34770;49.272;11.070;2024-03-07T00:19:24;98269.78;;;3.08;80.07
16030;BME280;34770;49.272;11.070;2024-03-07T00:21:54;98269.31;;;3.00;79.68
16030;BME280;34770;49.272;11.070;2024-03-07T00:24:22;98263.38;;;2.93;78.54
16030;BME280;34770;49.272;11.070;2024-03-07T00:26:48;98267.66;;;3.14;78.96
16030;BME280;34770;49.272;11.070;2024-03-07T00:29:19;98265.19;;;3.10;77.75
16030;BME280;34770;49.272;11.070;2024-03-07T00:31:45;98270.16;;;3.17;76.74
16030;BME280;34770;49.272;11.070;2024-03-07T00:34:14;98257.09;;;3.11;76.89
16030;BME280;34770;49.272;11.070;2024-03-07T00:36:44;98254.09;;;3.17;77.59
16030;BME280;34770;49.272;11.070;2024-03-07T00:39:09;98255.22;;;3.13;78.02
16030;BME280;34770;49.272;11.070;2024-03-07T00:41:38;98243.63;;;3.30;77.49
16030;BME280;34770;49.272;11.070;2024-03-07T00:44:04;98239.59;;;3.38;78.93
16030;BME280;34770;49.272;11.070;2024-03-07T00:46:29;98244.84;;;3.40;77.87
16030;BME280;34770;49.272;11.070;2024-03-07T00:48:55;98251.56;;;3.31;76.64
16030;BME280;34770;49.272;11.070;2024-03-07T00:51:20;98237.63;;;3.25;78.56
16030;BME280;34770;49.272;11.070;2024-03-07T00:53:45;98240.00;;;3.14;77.90
16030;BME280;34770;49.272;11.070;2024-03-07T00:56:12;98248.25;;;3.09;77.33
16030;BME280;34770;49.272;11.070;2024-03-07T00:58:37;98249.44;;;3.04;78.21
16030;BME280;34770;49.272;11.070;2024-03-07T01:01:03;98234.81;;;3.11;78.28
16030;BME280;34770;49.272;11.070;2024-03-07T01:03:28;98243.16;;;3.22;78.74
16030;BME280;34770;49.272;11.070;2024-03-07T01:05:54;98235.69;;;3.28;78.34
16030;BME280;34770;49.272;11.070;2024-03-07T01:08:19;98239.03;;;3.32;78.43
16030;BME280;34770;49.272;11.070;2024-03-07T01:10:45;98238.28;;;3.45;77.53
16030;BME280;34770;49.272;11.070;2024-03-07T01:13:10;98234.56;;;3.32;77.02
16030;BME280;34770;49.272;11.070;2024-03-07T01:15:47;98237.84;;;3.20;76.44
16030;BME280;34770;49.272;11.070;2024-03-07T01:18:13;98213.09;;;3.17;75.87
16030;BME280;34770;49.272;11.070;2024-03-07T01:20:39;98225.31;;;3.38;76.76
16030;BME280;34770;49.272;11.070;2024-03-07T01:23:04;98227.75;;;3.42;77.77
16030;BME280;34770;49.272;11.070;2024-03-07T01:25:30;98218.78;;;3.43;77.02
16030;BME280;34770;49.272;11.070;2024-03-07T01:27:59;98213.25;;;3.46;76.78
16030;BME280;34770;49.272;11.070;2024-03-07T01:30:25;98226.75;;;3.45;76.85
16030;BME280;34770;49.272;11.070;2024-03-07T01:32:53;98199.41;;;3.38;76.43
16030;BME280;34770;49.272;11.070;2024-03-07T01:35:19;98204.59;;;3.41;76.64
16030;BME280;34770;49.272;11.070;2024-03-07T01:37:44;98198.34;;;3.25;75.68
16030;BME280;34770;49.272;11.070;2024-03-07T01:40:10;98210.13;;;3.38;76.89
16030;BME280;34770;49.272;11.070;2024-03-07T01:42:36;98221.25;;;3.31;76.72
16030;BME280;34770;49.272;11.070;2024-03-07T01:45:02;98217.44;;;3.35;75.83
16030;BME280;34770;49.272;11.070;2024-03-07T01:47:28;98216.94;;;3.28;75.52
16030;BME280;34770;49.272;11.070;2024-03-07T01:49:53;98222.59;;;3.39;75.94
16030;BME280;34770;49.272;11.070;2024-03-07T01:52:19;98203.28;;;3.33;76.24
16030;BME280;34770;49.272;11.070;2024-03-07T01:54:47;98200.91;;;3.44;76.21
16030;BME280;34770;49.272;11.070;2024-03-07T01:57:14;98196.16;;;3.49;75.72
16030;BME280;34770;49.272;11.070;2024-03-07T01:59:40;98202.53;;;3.46;75.38
16030;BME280;34770;49.272;11.070;2024-03-07T02:02:06;98198.50;;;3.55;76.13
16030;BME280;34770;49.272;11.070;2024-03-07T02:04:32;98198.13;;;3.45;75.46
16030;BME280;34770;49.272;11.070;2024-03-07T02:06:57;98190.38;;;3.57;75.05
16030;BME280;34770;49.272;11.070;2024-03-07T02:09:23;98199.03;;;3.62;73.24
16030;BME280;34770;49.272;11.070;2024-03-07T02:11:49;98199.22;;;3.59;74.11
16030;BME280;34770;49.272;11.070;2024-03-07T02:14:15;98190.63;;;3.52;75.20
16030;BME280;34770;49.272;11.070;2024-03-07T02:16:40;98193.47;;;3.49;75.21
16030;BME280;34770;49.272;11.070;2024-03-07T02:19:06;98181.66;;;3.53;75.08
16030;BME280;34770;49.272;11.070;2024-03-07T02:21:33;98196.44;;;3.60;75.39
16030;BME280;34770;49.272;11.070;2024-03-07T02:23:58;98177.06;;;3.55;75.64
16030;BME280;34770;49.272;11.070;2024-03-07T02:26:24;98175.44;;;3.53;75.88
16030;BME280;34770;49.272;11.070;2024-03-07T02:28:49;98171.16;;;3.48;75.75
16030;BME280;34770;49.272;11.070;2024-03-07T02:31:14;98168.91;;;3.41;74.39
16030;BME280;34770;49.272;11.070;2024-03-07T02:33:40;98173.78;;;3.50;73.01
16030;BME280;34770;49.272;11.070;2024-03-07T02:36:07;98172.38;;;3.43;73.52
16030;BME280;34770;49.272;11.070;2024-03-07T02:38:32;98174.59;;;3.35;73.77
16030;BME280;34770;49.272;11.070;2024-03-07T02:40:58;98163.28;;;3.30;74.94
16030;BME280;34770;49.272;11.070;2024-03-07T02:43:24;98171.47;;;3.27;75.07
16030;BME280;34770;49.272;11.070;2024-03-07T02:45:49;98165.53;;;3.05;74.53
16030;BME280;34770;49.272;11.070;2024-03-07T02:48:15;98156.75;;;3.03;74.58
16030;BME280;34770;49.272;11.070;2024-03-07T02:50:40;98167.19;;;3.07;74.41
16030;BME280;34770;49.272;11.070;2024-03-07T02:53:06;98171.06;;;3.02;74.60
16030;BME280;34770;49.272;11.070;2024-03-07T02:55:32;98155.00;;;3.02;74.75
16030;BME280;34770;49.272;11.070;2024-03-07T02:57:57;98156.34;;;2.93;75.80
16030;BME280;34770;49.272;11.070;2024-03-07T03:00:25;98162.56;;;2.93;75.60
16030;BME280;34770;49.272;11.070;2024-03-07T03:02:55;98157.84;;;2.99;75.72
16030;BME280;34770;49.272;11.070;2024-03-07T03:05:22;98158.28;;;3.07;76.74
16030;BME280;34770;49.272;11.070;2024-03-07T03:07:48;98152.41;;;3.00;76.81
16030;BME280;34770;49.272;11.070;2024-03-07T03:10:23;98157.13;;;2.95;76.02
16030;BME280;34770;49.272;11.070;2024-03-07T03:12:54;98158.41;;;2.88;76.76
16030;BME280;34770;49.272;11.070;2024-03-07T03:15:24;98161.44;;;2.98;75.95
16030;BME280;34770;49.272;11.070;2024-03-07T03:17:50;98161.53;;;2.96;75.81
16030;BME280;34770;49.272;11.070;2024-03-07T03:20:15;98164.78;;;3.03;76.29
16030;BME280;34770;49.272;11.070;2024-03-07T03:22:51;98167.91;;;3.11;76.03
16030;BME280;34770;49.272;11.070;2024-03-07T03:25:18;98170.56;;;3.11;76.08
16030;BME280;34770;49.272;11.070;2024-03-07T03:27:44;98159.28;;;3.21;76.25
16030;BME280;34770;49.272;11.070;2024-03-07T03:30:10;98158.97;;;3.27;75.64
16030;BME280;34770;49.272;11.070;2024-03-07T03:32:39;98144.25;;;3.19;75.45
16030;BME280;34770;49.272;11.070;2024-03-07T03:35:05;98169.00;;;3.07;75.46
16030;BME280;34770;49.272;11.070;2024-03-07T03:37:31;98174.00;;;3.30;76.36
16030;BME280;34770;49.272;11.070;2024-03-07T03:39:56;98154.03;;;3.20;76.52
16030;BME280;34770;49.272;11.070;2024-03-07T03:42:21;98159.13;;;3.24;75.87
16030;BME280;34770;49.272;11.070;2024-03-07T03:44:47;98167.69;;;3.31;76.63
16030;BME280;34770;49.272;11.070;2024-03-07T03:47:13;98173.53;;;3.22;75.07
16030;BME280;34770;49.272;11.070;2024-03-07T03:49:39;98173.41;;;3.08;75.44
16030;BME280;34770;49.272;11.070;2024-03-07T03:52:04;98153.13;;;2.86;76.04
16030;BME280;34770;49.272;11.070;2024-03-07T03:54:30;98167.16;;;2.91;76.33
16030;BME280;34770;49.272;11.070;2024-03-07T03:56:55;98164.38;;;2.76;76.30
16030;BME280;34770;49.272;11.070;2024-03-07T03:59:21;98164.94;;;2.65;76.50
16030;BME280;34770;49.272;11.070;2024-03-07T04:01:46;98148.28;;;2.77;76.80
16030;BME280;34770;49.272;11.070;2024-03-07T04:04:11;98168.78;;;2.94;77.38
16030;BME280;34770;49.272;11.070;2024-03-07T04:06:38;98171.22;;;2.99;77.14
16030;BME280;34770;49.272;11.070;2024-03-07T04:09:03;98173.59;;;2.87;77.04
16030;BME280;34770;49.272;11.070;2024-03-07T04:11:30;98150.94;;;2.77;77.17
16030;BME280;34770;49.272;11.070;2024-03-07T04:13:55;98172.72;;;2.87;77.16
16030;BME280;34770;49.272;11.070;2024-03-07T04:16:21;98171.00;;;2.86;76.91
16030;BME280;34770;49.272;11.070;2024-03-07T04:18:46;98162.56;;;2.59;77.88
16030;BME280;34770;49.272;11.070;2024-03-07T04:21:12;98171.00;;;2.69;77.20
16030;BME280;34770;49.272;11.070;2024-03-07T04:23:40;98161.25;;;2.68;77.01
16030;BME280;34770;49.272;11.070;2024-03-07T04:26:05;98144.81;;;2.41;77.20
16030;BME280;34770;49.272;11.070;2024-03-07T04:28:31;98176.91;;;2.58;77.53
16030;BME280;34770;49.272;11.070;2024-03-07T04:30:56;98167.56;;;2.50;78.46
16030;BME280;34770;49.272;11.070;2024-03-07T04:33:21;98165.03;;;2.64;77.99
16030;BME280;34770;49.272;11.070;2024-03-07T04:35:48;98172.41;;;2.59;78.40
16030;BME280;34770;49.272;11.070;2024-03-07T04:38:13;98159.69;;;2.64;77.42
16030;BME280;34770;49.272;11.070;2024-03-07T04:40:41;98153.84;;;2.56;78.12
16030;BME280;34770;49.272;11.070;2024-03-07T04:43:07;98170.75;;;2.73;77.49
16030;BME280;34770;49.272;11.070;2024-03-07T04:45:33;98159.13;;;2.57;77.72
16030;BME280;34770;49.272;11.070;2024-03-07T04:47:59;98170.28;;;2.65;78.34
16030;BME280;34770;49.272;11.070;2024-03-07T04:50:24;98175.53;;;2.67;78.19
16030;BME280;34770;49.272;11.070;2024-03-07T04:52:51;98174.38;;;2.72;78.78
16030;BME280;34770;49.272;11.070;2024-03-07T04:55:17;98176.97;;;2.74;79.54
16030;BME280;34770;49.272;11.070;2024-03-07T04:57:43;98177.19;;;2.86;80.11
16030;BME280;34770;49.272;11.070;2024-03-07T05:00:13;98178.38;;;2.81;78.46
16030;BME280;34770;49.272;11.070;2024-03-07T05:02:42;98166.69;;;2.83;78.72
16030;BME280;34770;49.272;11.070;2024-03-07T05:05:08;98164.94;;;2.82;79.58
16030;BME280;34770;49.272;11.070;2024-03-07T05:07:33;98160.06;;;2.90;78.59
16030;BME280;34770;49.272;11.070;2024-03-07T05:10:04;98166.41;;;3.05;78.54
16030;BME280;34770;49.272;11.070;2024-03-07T05:12:30;98168.13;;;3.06;77.41
16030;BME280;34770;49.272;11.070;2024-03-07T05:14:56;98164.47;;;2.91;78.13
16030;BME280;34770;49.272;11.070;2024-03-07T05:17:22;98151.88;;;2.93;79.10
16030;BME280;34770;49.272;11.070;2024-03-07T05:19:47;98155.25;;;2.80;77.23
16030;BME280;34770;49.272;11.070;2024-03-07T05:22:14;98152.28;;;2.86;77.78
16030;BME280;34770;49.272;11.070;2024-03-07T05:24:43;98170.19;;;3.01;78.08
16030;BME280;34770;49.272;11.070;2024-03-07T05:27:09;98177.19;;;3.04;78.06
16030;BME280;34770;49.272;11.070;2024-03-07T05:29:37;98169.56;;;2.96;77.72
16030;BME280;34770;49.272;11.070;2024-03-07T05:32:25;98170.59;;;2.93;77.67
16030;BME280;34770;49.272;11.070;2024-03-07T05:34:52;98167.91;;;2.93;78.47
16030;BME280;34770;49.272;11.070;2024-03-07T05:37:21;98152.66;;;2.78;78.24
16030;BME280;34770;49.272;11.070;2024-03-07T05:39:50;98169.00;;;2.72;78.82
16030;BME280;34770;49.272;11.070;2024-03-07T05:42:15;98173.53;;;2.72;78.97
16030;BME280;34770;49.272;11.070;2024-03-07T05:44:41;98171.38;;;2.78;78.56
16030;BME280;34770;49.272;11.070;2024-03-07T05:47:07;98173.69;;;2.86;78.71
16030;BME280;34770;49.272;11.070;2024-03-07T05:49:34;98175.03;;;2.77;77.43
16030;BME280;34770;49.272;11.070;2024-03-07T05:52:02;98146.31;;;2.47;76.95
16030;BME280;34770;49.272;11.070;2024-03-07T05:54:28;98173.09;;;2.45;77.95
16030;BME280;34770;49.272;11.070;2024-03-07T05:56:54;98166.81;;;2.29;78.02
16030;BME280;34770;49.272;11.070;2024-03-07T05:59:20;98156.88;;;2.14;78.70
16030;BME280;34770;49.272;11.070;2024-03-07T06:01:46;98166.06;;;2.08;79.11
16030;BME280;34770;49.272;11.070;2024-03-07T06:04:12;98169.22;;;2.16;79.28
16030;BME280;34770;49.272;11.070;2024-03-07T06:06:38;98172.69;;;2.18;80.14
16030;BME280;34770;49.272;11.070;2024-03-07T06:09:05;98174.69;;;2.32;79.93
16030;BME280;34770;49.272;11.070;2024-03-07T06:14:01;98170.34;;;2.29;79.86
16030;BME280;34770;49.272;11.070;2024-03-07T06:16:30;98173.25;;;2.25;80.15
16030;BME280;34770;49.272;11.070;2024-03-07T06:18:59;98156.38;;;2.06;79.54
16030;BME280;34770;49.272;11.070;2024-03-07T06:21:25;98178.53;;;2.08;79.64
16030;BME280;34770;49.272;11.070;2024-03-07T06:23:50;98175.31;;;2.01;79.71
16030;BME280;34770;49.272;11.070;2024-03-07T06:26:27;98189.19;;;2.09;79.06
16030;BME280;34770;49.272;11.070;2024-03-07T06:29:06;98180.22;;;2.10;79.35
16030;BME280;34770;49.272;11.070;2024-03-07T06:31:32;98179.84;;;2.18;78.20
16030;BME280;34770;49.272;11.070;2024-03-07T06:33:58;98182.50;;;2.18;77.84
16030;BME280;34770;49.272;11.070;2024-03-07T06:36:23;98185.25;;;2.16;77.78
16030;BME280;34770;49.272;11.070;2024-03-07T06:38:50;98183.59;;;2.14;78.31
16030;BME280;34770;49.272;11.070;2024-03-07T06:41:16;98175.91;;;2.25;78.50
16030;BME280;34770;49.272;11.070;2024-03-07T06:43:43;98180.66;;;2.37;78.84
16030;BME280;34770;49.272;11.070;2024-03-07T06:46:10;98183.31;;;2.37;78.60
16030;BME280;34770;49.272;11.070;2024-03-07T06:48:35;98181.75;;;2.50;78.73
16030;BME280;34770;49.272;11.070;2024-03-07T06:51:00;98177.44;;;2.65;77.58
16030;BME280;34770;49.272;11.070;2024-03-07T06:53:26;98178.78;;;2.73;77.38
16030;BME280;34770;49.272;11.070;2024-03-07T06:55:53;98180.44;;;2.76;77.44
16030;BME280;34770;49.272;11.070;2024-03-07T06:58:22;98179.50;;;2.77;76.27
16030;BME280;34770;49.272;11.070;2024-03-07T07:00:48;98157.13;;;2.78;76.11
16030;BME280;34770;49.272;11.070;2024-03-07T07:03:17;98171.75;;;3.05;76.20
16030;BME280;34770;49.272;11.070;2024-03-07T07:05:44;98190.81;;;3.16;76.20
16030;BME280;34770;49.272;11.070;2024-03-07T07:08:10;98177.88;;;3.24;75.56
16030;BME280;34770;49.272;11.070;2024-03-07T07:10:36;98176.03;;;3.42;75.46
16030;BME280;34770;49.272;11.070;2024-03-07T07:13:02;98175.91;;;3.43;74.81
16030;BME280;34770;49.272;11.070;2024-03-07T07:15:29;98166.34;;;3.39;73.70
16030;BME280;34770;49.272;11.070;2024-03-07T07:17:55;98192.03;;;3.59;74.09
16030;BME280;34770;49.272;11.070;2024-03-07T07:20:21;98186.41;;;3.48;73.77
16030;BME280;34770;49.272;11.070;2024-03-07T07:22:49;98181.94;;;3.64;73.35
16030;BME280;34770;49.272;11.070;2024-03-07T07:25:15;98169.69;;;3.43;74.73
16030;BME280;34770;49.272;11.070;2024-03-07T07:27:47;98180.91;;;3.67;74.31
16030;BME280;34770;49.272;11.070;2024-03-07T07:30:18;98181.44;;;3.89;73.68
16030;BME280;34770;49.272;11.070;2024-03-07T07:32:45;98168.19;;;4.17;73.30
16030;BME280;34770;49.272;11.070;2024-03-07T07:35:11;98174.31;;;4.35;72.46
16030;BME280;34770;49.272;11.070;2024-03-07T07:37:44;98177.84;;;4.35;73.04
16030;BME280;34770;49.272;11.070;2024-03-07T07:40:12;98173.31;;;4.06;73.09
16030;BME280;34770;49.272;11.070;2024-03-07T07:42:40;98169.03;;;4.33;72.83
16030;BME280;34770;49.272;11.070;2024-03-07T07:45:11;98143.59;;;4.40;72.49
16030;BME280;34770;49.272;11.070;2024-03-07T07:47:41;98170.50;;;4.39;71.67
16030;BME280;34770;49.272;11.070;2024-03-07T07:50:11;98167.66;;;4.26;72.22
16030;BME280;34770;49.272;11.070;2024-03-07T07:52:57;98169.81;;;4.20;73.12
16030;BME280;34770;49.272;11.070;2024-03-07T07:55:25;98167.81;;;4.39;72.75
16030;BME280;34770;49.272;11.070;2024-03-07T07:57:53;98174.09;;;4.53;72.82
16030;BME280;34770;49.272;11.070;2024-03-07T08:00:20;98176.84;;;4.67;72.48
16030;BME280;34770;49.272;11.070;2024-03-07T08:02:59;98162.47;;;4.68;72.96
16030;BME280;34770;49.272;11.070;2024-03-07T08:05:29;98168.19;;;5.06;72.12
16030;BME280;34770;49.272;11.070;2024-03-07T08:07:56;98166.13;;;5.40;70.92
16030;BME280;34770;49.272;11.070;2024-03-07T08:10:24;98159.59;;;5.72;70.54
16030;BME280;34770;49.272;11.070;2024-03-07T08:12:51;98156.53;;;5.78;68.75
16030;BME280;34770;49.272;11.070;2024-03-07T08:15:16;98158.22;;;5.79;70.33
16030;BME280;34770;49.272;11.070;2024-03-07T08:17:46;98144.72;;;5.95;69.62
16030;BME280;34770;49.272;11.070;2024-03-07T08:20:14;98153.41;;;6.12;68.15
16030;BME280;34770;49.272;11.070;2024-03-07T08:22:41;98153.47;;;6.25;68.07
16030;BME280;34770;49.272;11.070;2024-03-07T08:25:14;98154.56;;;6.35;67.75
16030;BME280;34770;49.272;11.070;2024-03-07T08:27:41;98138.28;;;6.51;68.14
16030;BME280;34770;49.272;11.070;2024-03-07T08:30:08;98155.84;;;6.56;67.95
16030;BME280;34770;49.272;11.070;2024-03-07T08:32:39;98146.16;;;6.27;69.25
16030;BME280;34770;49.272;11.070;2024-03-07T08:35:05;98148.28;;;6.22;68.84
16030;BME280;34770;49.272;11.070;2024-03-07T08:37:35;98149.00;;;6.11;69.82
16030;BME280;34770;49.272;11.070;2024-03-07T08:40:02;98134.16;;;6.18;69.89
16030;BME280;34770;49.272;11.070;2024-03-07T08:42:35;98133.44;;;6.29;69.46
16030;BME280;34770;49.272;11.070;2024-03-07T08:45:02;98135.22;;;6.16;69.91
16030;BME280;34770;49.272;11.070;2024-03-07T08:47:35;98131.94;;;6.25;69.99
16030;BME280;34770;49.272;11.070;2024-03-07T08:50:04;98133.22;;;6.19;70.72
16030;BME280;34770;49.272;11.070;2024-03-07T08:52:36;98131.69;;;6.42;70.43
16030;BME280;34770;49.272;11.070;2024-03-07T08:55:03;98125.84;;;6.35;68.96
16030;BME280;34770;49.272;11.070;2024-03-07T08:57:28;98127.59;;;6.49;69.07
16030;BME280;34770;49.272;11.070;2024-03-07T08:59:54;98135.41;;;6.54;69.05
16030;BME280;34770;49.272;11.070;2024-03-07T09:02:19;98122.63;;;6.82;68.82
16030;BME280;34770;49.272;11.070;2024-03-07T09:04:45;98134.63;;;7.16;67.78
16030;BME280;34770;49.272;11.070;2024-03-07T09:07:11;98121.34;;;7.13;66.91
16030;BME280;34770;49.272;11.070;2024-03-07T09:09:38;98123.97;;;7.15;66.95
16030;BME280;34770;49.272;11.070;2024-03-07T09:12:04;98117.63;;;7.16;66.67
16030;BME280;34770;49.272;11.070;2024-03-07T09:14:30;98113.94;;;7.29;65.93
16030;BME280;34770;49.272;11.070;2024-03-07T09:16:56;98124.72;;;7.29;66.87
16030;BME280;34770;49.272;11.070;2024-03-07T09:19:22;98116.63;;;7.04;66.08
16030;BME280;34770;49.272;11.070;2024-03-07T09:21:52;98117.06;;;6.98;67.08
16030;BME280;34770;49.272;11.070;2024-03-07T09:24:19;98122.31;;;6.87;66.16
16030;BME280;34770;49.272;11.070;2024-03-07T09:26:48;98117.88;;;6.73;66.80
16030;BME280;34770;49.272;11.070;2024-03-07T09:29:15;98115.81;;;6.77;66.50
16030;BME280;34770;49.272;11.070;2024-03-07T09:31:40;98111.16;;;6.54;66.22
16030;BME280;34770;49.272;11.070;2024-03-07T09:34:07;98118.47;;;6.52;66.17
16030;BME280;34770;49.272;11.070;2024-03-07T09:36:33;98108.97;;;6.46;66.17
16030;BME280;34770;49.272;11.070;2024-03-07T09:38:59;98129.44;;;6.49;66.33
16030;BME280;34770;49.272;11.070;2024-03-07T09:41:24;98120.53;;;6.48;66.90
16030;BME280;34770;49.272;11.070;2024-03-07T09:43:54;98115.69;;;6.53;66.31
16030;BME280;34770;49.272;11.070;2024-03-07T09:46:24;98126.66;;;6.50;65.62
16030;BME280;34770;49.272;11.070;2024-03-07T09:48:50;98125.13;;;6.46;66.00
16030;BME280;34770;49.272;11.070;2024-03-07T09:51:20;98121.59;;;6.46;66.06
16030;BME280;34770;49.272;11.070;2024-03-07T09:53:48;98108.13;;;6.46;65.77
16030;BME280;34770;49.272;11.070;2024-03-07T09:56:22;98128.63;;;6.61;65.28
16030;BME280;34770;49.272;11.070;2024-03-07T09:58:51;98125.38;;;6.68;65.00
16030;BME280;34770;49.272;11.070;2024-03-07T10:01:21;98118.44;;;6.78;64.82
16030;BME280;34770;49.272;11.070;2024-03-07T10:03:50;98110.47;;;6.89;64.16
16030;BME280;34770;49.272;11.070;2024-03-07T10:06:18;98092.06;;;7.09;63.74
16030;BME280;34770;49.272;11.070;2024-03-07T10:08:47;98119.75;;;7.48;63.35
16030;BME280;34770;49.272;11.070;2024-03-07T10:11:12;98120.66;;;7.73;62.85
16030;BME280;34770;49.272;11.070;2024-03-07T10:13:40;98119.13;;;7.94;61.82
16030;BME280;34770;49.272;11.070;2024-03-07T10:16:06;98116.50;;;8.05;61.33
16030;BME280;34770;49.272;11.070;2024-03-07T10:18:41;98119.28;;;7.67;61.81
16030;BME280;34770;49.272;11.070;2024-03-07T10:21:07;98113.97;;;7.78;60.82
16030;BME280;34770;49.272;11.070;2024-03-07T10:23:32;98112.81;;;7.70;61.72
16030;BME280;34770;49.272;11.070;2024-03-07T10:25:59;98111.00;;;7.57;61.85
16030;BME280;34770;49.272;11.070;2024-03-07T10:28:29;98108.88;;;7.86;61.00
16030;BME280;34770;49.272;11.070;2024-03-07T10:30:56;98117.19;;;8.32;60.44
16030;BME280;34770;49.272;11.070;2024-03-07T10:33:26;98116.72;;;8.38;59.85
16030;BME280;34770;49.272;11.070;2024-03-07T10:35:52;98120.00;;;8.31;60.18
16030;BME280;34770;49.272;11.070;2024-03-07T10:38:18;98118.47;;;8.39;60.08
16030;BME280;34770;49.272;11.070;2024-03-07T10:40:47;98112.44;;;8.23;60.30
16030;BME280;34770;49.272;11.070;2024-03-07T10:43:13;98104.19;;;8.37;60.07
16030;BME280;34770;49.272;11.070;2024-03-07T10:45:44;98111.66;;;8.34;59.27
16030;BME280;34770;49.272;11.070;2024-03-07T10:48:16;98102.50;;;8.36;59.08
16030;BME280;34770;49.272;11.070;2024-03-07T10:53:20;98099.88;;;8.58;58.91
16030;BME280;34770;49.272;11.070;2024-03-07T11:00:58;98094.06;;;8.28;59.58
16030;BME280;34770;49.272;11.070;2024-03-07T11:03:26;98091.94;;;8.21;59.20
16030;BME280;34770;49.272;11.070;2024-03-07T11:05:52;98088.53;;;8.06;60.25
16030;BME280;34770;49.272;11.070;2024-03-07T11:08:18;98079.78;;;7.79;60.05
16030;BME280;34770;49.272;11.070;2024-03-07T11:10:45;98086.69;;;7.83;59.85
16030;BME280;34770;49.272;11.070;2024-03-07T11:13:13;98090.13;;;7.85;60.29
16030;BME280;34770;49.272;11.070;2024-03-07T11:15:44;98069.94;;;7.78;60.67
16030;BME280;34770;49.272;11.070;2024-03-07T11:18:11;98085.38;;;7.88;60.98
16030;BME280;34770;49.272;11.070;2024-03-07T11:20:39;98088.06;;;7.88;61.05
16030;BME280;34770;49.272;11.070;2024-03-07T11:23:28;98082.47;;;7.79;59.91
16030;BME280;34770;49.272;11.070;2024-03-07T11:26:10;98075.03;;;7.70;59.82
16030;BME280;34770;49.272;11.070;2024-03-07T11:28:42;98077.81;;;7.81;60.09
16030;BME280;34770;49.272;11.070;2024-03-07T11:31:26;98070.81;;;7.78;59.80
16030;BME280;34770;49.272;11.070;2024-03-07T11:34:15;98070.09;;;7.64;60.29
16030;BME280;34770;49.272;11.070;2024-03-07T11:36:48;98069.69;;;7.57;60.82
16030;BME280;34770;49.272;11.070;2024-03-07T11:42:28;98065.69;;;7.63;60.43
16030;BME280;34770;49.272;11.070;2024-03-07T11:44:57;98063.16;;;7.72;60.43
16030;BME280;34770;49.272;11.070;2024-03-07T11:47:26;98046.16;;;7.72;60.23
16030;BME280;34770;49.272;11.070;2024-03-07T11:49:56;98069.94;;;7.90;60.12
16030;BME280;34770;49.272;11.070;2024-03-07T11:52:25;98060.03;;;7.78;60.11
16030;BME280;34770;49.272;11.070;2024-03-07T11:54:53;98046.00;;;7.86;60.13
16030;BME280;34770;49.272;11.070;2024-03-07T11:57:19;98051.72;;;7.81;59.37
16030;BME280;34770;49.272;11.070;2024-03-07T11:59:45;98057.97;;;7.82;59.93
16030;BME280;34770;49.272;11.070;2024-03-07T12:02:15;98046.81;;;7.63;60.52
16030;BME280;34770;49.272;11.070;2024-03-07T12:04:44;98040.25;;;7.54;60.57
16030;BME280;34770;49.272;11.070;2024-03-07T12:07:09;98038.75;;;7.86;60.36
16030;BME280;34770;49.272;11.070;2024-03-07T12:09:45;98044.72;;;7.79;59.65
16030;BME280;34770;49.272;11.070;2024-03-07T12:12:16;98040.34;;;7.89;59.91
16030;BME280;34770;49.272;11.070;2024-03-07T12:14:42;98040.81;;;8.06;59.12
16030;BME280;34770;49.272;11.070;2024-03-07T12:17:08;98033.53;;;7.96;59.21
16030;BME280;34770;49.272;11.070;2024-03-07T12:19:34;98040.94;;;7.81;60.17
16030;BME280;34770;49.272;11.070;2024-03-07T12:22:03;98019.28;;;7.70;60.68
16030;BME280;34770;49.272;11.070;2024-03-07T12:24:29;98035.31;;;7.84;61.73
16030;BME280;34770;49.272;11.070;2024-03-07T12:27:05;98039.03;;;7.94;60.28
16030;BME280;34770;49.272;11.070;2024-03-07T12:29:31;98026.84;;;7.89;59.53
16030;BME280;34770;49.272;11.070;2024-03-07T12:31:59;98033.56;;;7.83;59.68
16030;BME280;34770;49.272;11.070;2024-03-07T12:34:25;98021.31;;;7.79;60.63
16030;BME280;34770;49.272;11.070;2024-03-07T12:36:55;98024.06;;;7.90;59.91
16030;BME280;34770;49.272;11.070;2024-03-07T12:39:24;98016.13;;;7.76;60.13
16030;BME280;34770;49.272;11.070;2024-03-07T12:41:51;97985.44;;;7.66;59.71
16030;BME280;34770;49.272;11.070;2024-03-07T12:44:19;98017.88;;;7.77;60.62
16030;BME280;34770;49.272;11.070;2024-03-07T12:46:48;98018.72;;;8.01;61.46
16030;BME280;34770;49.272;11.070;2024-03-07T12:49:14;98013.75;;;8.08;58.91
16030;BME280;34770;49.272;11.070;2024-03-07T12:51:43;98010.22;;;8.18;58.15
16030;BME280;34770;49.272;11.070;2024-03-07T12:54:09;98010.94;;;8.33;57.75
16030;BME280;34770;49.272;11.070;2024-03-07T12:56:37;97997.81;;;8.40;57.00
16030;BME280;34770;49.272;11.070;2024-03-07T12:59:05;98009.63;;;8.26;57.58
16030;BME280;34770;49.272;11.070;2024-03-07T13:01:37;97994.50;;;8.36;57.90
16030;BME280;34770;49.272;11.070;2024-03-07T13:04:16;97995.41;;;8.59;57.56
16030;BME280;34770;49.272;11.070;2024-03-07T13:06:42;98000.34;;;8.76;57.37
16030;BME280;34770;49.272;11.070;2024-03-07T13:09:12;97998.28;;;8.80;56.59
16030;BME280;34770;49.272;11.070;2024-03-07T13:11:38;97995.56;;;8.80;56.32
16030;BME280;34770;49.272;11.070;2024-03-07T13:14:12;97993.13;;;9.10;55.99
16030;BME280;34770;49.272;11.070;2024-03-07T13:16:37;97994.00;;;9.21;55.69